Time;durP1;ratioP1;P1;durP2;ratioP2;P2;SDS_P1;SDS_P2;PMS_P1;PMS_P2;Temp;Humidity;BMP_temperature;BMP_pressure;BME280_temperature;BME280_humidity;BME280_pressure;Samples;Min_cycle;Max_cycle;Signal;HPM_P1;HPM_P2
2021/06/07 00:00:21;;;;;;;9.80;8.55;;;15.10;99.90;;;;;;5094895;28;20028;-79
2021/06/07 00:02:48;;;;;;;11.23;8.23;;;15.00;99.90;;;;;;5096230;28;20024;-78
2021/06/07 00:05:15;;;;;;;10.60;7.95;;;15.00;99.90;;;;;;5094469;28;20052;-79
2021/06/07 00:07:40;;;;;;;10.35;8.35;;;15.00;99.90;;;;;;5094975;28;20028;-78
2021/06/07 00:10:11;;;;;;;9.60;7.90;;;15.00;99.90;;;;;;5094749;28;20016;-80
2021/06/07 00:12:38;;;;;;;10.68;8.05;;;14.90;99.90;;;;;;5094944;28;20489;-80
2021/06/07 00:15:08;;;;;;;9.50;7.78;;;15.00;99.90;;;;;;5094765;28;20035;-79
2021/06/07 00:17:33;;;;;;;9.25;7.90;;;14.90;99.90;;;;;;5094364;28;20023;-78
2021/06/07 00:19:59;;;;;;;9.32;7.72;;;14.90;99.90;;;;;;5094887;28;20106;-79
2021/06/07 00:22:25;;;;;;;9.35;8.35;;;14.80;99.90;;;;;;5094847;28;20024;-79
2021/06/07 00:24:51;;;;;;;9.27;8.18;;;14.80;99.90;;;;;;5095821;28;20020;-79
2021/06/07 00:27:17;;;;;;;9.48;8.48;;;14.70;99.90;;;;;;5094735;28;20043;-79
2021/06/07 00:29:42;;;;;;;10.98;8.93;;;14.70;99.90;;;;;;5094468;28;20115;-79
2021/06/07 00:32:08;;;;;;;8.93;8.07;;;14.70;99.90;;;;;;5094406;28;20454;-79
2021/06/07 00:34:34;;;;;;;9.43;8.52;;;14.70;99.90;;;;;;5094441;28;20024;-80
2021/06/07 00:36:59;;;;;;;11.10;8.25;;;14.70;99.90;;;;;;5095525;28;20031;-79
2021/06/07 00:39:25;;;;;;;8.77;7.97;;;14.60;99.90;;;;;;5094103;28;20141;-79
2021/06/07 00:41:51;;;;;;;10.60;7.93;;;14.70;99.90;;;;;;5094026;28;20479;-79
2021/06/07 00:44:21;;;;;;;8.02;7.10;;;14.70;99.90;;;;;;5094073;28;20020;-80
2021/06/07 00:46:47;;;;;;;13.65;8.27;;;14.60;99.90;;;;;;5093916;28;20028;-81
2021/06/07 00:49:13;;;;;;;8.05;7.22;;;14.60;99.90;;;;;;5094361;28;20027;-79
2021/06/07 00:51:41;;;;;;;7.97;7.22;;;14.50;99.90;;;;;;5094027;28;20028;-79
2021/06/07 00:54:07;;;;;;;10.88;7.68;;;14.50;99.90;;;;;;5094028;28;20020;-80
2021/06/07 00:56:33;;;;;;;12.57;6.90;;;14.40;99.90;;;;;;5094178;28;20423;-80
2021/06/07 00:58:59;;;;;;;8.40;7.47;;;14.40;99.90;;;;;;5093457;28;20074;-79
2021/06/07 01:01:27;;;;;;;10.05;8.10;;;14.30;99.90;;;;;;5094994;28;20056;-80
2021/06/07 01:03:56;;;;;;;9.45;7.40;;;14.20;99.90;;;;;;5093992;28;20024;-79
2021/06/07 01:06:22;;;;;;;9.25;8.27;;;14.20;99.90;;;;;;5093257;28;20052;-80
2021/06/07 01:08:49;;;;;;;8.60;7.50;;;14.10;99.90;;;;;;5095244;28;20017;-80
2021/06/07 01:11:16;;;;;;;8.57;7.78;;;14.10;99.90;;;;;;5093603;28;20020;-79
2021/06/07 01:13:42;;;;;;;9.32;7.65;;;14.10;99.90;;;;;;5093906;28;20024;-80
2021/06/07 01:16:09;;;;;;;9.10;8.30;;;14.10;99.90;;;;;;5093670;28;20028;-79
2021/06/07 01:18:35;;;;;;;10.52;8.13;;;14.10;99.90;;;;;;5094706;28;20016;-80
2021/06/07 01:21:11;;;;;;;8.63;7.57;;;14.10;99.90;;;;;;5094744;28;20032;-80
2021/06/07 01:23:38;;;;;;;9.75;7.60;;;14.00;99.90;;;;;;5094991;28;20016;-79
2021/06/07 01:26:06;;;;;;;9.63;8.60;;;14.00;99.90;;;;;;5093737;28;20067;-80
2021/06/07 01:28:32;;;;;;;8.38;7.57;;;14.00;99.90;;;;;;5093709;28;20016;-80
2021/06/07 01:30:58;;;;;;;8.90;8.20;;;14.00;99.90;;;;;;5094467;28;20032;-79
2021/06/07 01:33:26;;;;;;;8.32;7.53;;;14.00;99.90;;;;;;5093263;28;20020;-79
2021/06/07 01:35:53;;;;;;;8.05;7.22;;;14.00;99.90;;;;;;5093405;28;20020;-80
2021/06/07 01:38:20;;;;;;;10.23;7.63;;;14.00;99.90;;;;;;5093098;28;20012;-82
2021/06/07 01:40:48;;;;;;;8.45;7.63;;;14.00;99.90;;;;;;5093279;28;20374;-80
2021/06/07 01:43:14;;;;;;;8.95;7.38;;;14.00;99.90;;;;;;5094666;28;20034;-80
2021/06/07 01:45:42;;;;;;;8.27;7.55;;;13.90;99.90;;;;;;5094326;28;20141;-80
2021/06/07 01:48:10;;;;;;;10.73;7.40;;;13.90;99.90;;;;;;5094619;28;20554;-80
2021/06/07 01:50:36;;;;;;;9.27;7.68;;;13.80;99.90;;;;;;5093280;28;20043;-80
2021/06/07 01:53:04;;;;;;;8.90;8.00;;;13.80;99.90;;;;;;5093253;28;20068;-80
2021/06/07 01:55:43;;;;;;;10.85;7.80;;;13.70;99.90;;;;;;5093059;28;20016;-80
2021/06/07 01:58:10;;;;;;;9.82;8.02;;;13.70;99.90;;;;;;5093045;28;20656;-80
2021/06/07 02:00:48;;;;;;;9.80;8.50;;;13.60;99.90;;;;;;5094074;28;20020;-81
2021/06/07 02:03:16;;;;;;;11.07;8.00;;;13.60;99.90;;;;;;5092909;28;20446;-80
2021/06/07 02:05:44;;;;;;;9.73;7.97;;;13.60;99.90;;;;;;5092801;28;20051;-80
2021/06/07 02:08:13;;;;;;;9.88;8.38;;;13.50;99.90;;;;;;5093950;28;20039;-80
2021/06/07 02:10:52;;;;;;;9.70;7.95;;;13.50;99.90;;;;;;5091898;28;21106;-80
2021/06/07 02:13:18;;;;;;;10.77;8.10;;;13.50;99.90;;;;;;5093388;28;20021;-80
2021/06/07 02:16:02;;;;;;;11.93;8.98;;;13.50;99.90;;;;;;5092697;28;20021;-80
2021/06/07 02:18:30;;;;;;;10.00;7.65;;;13.50;99.90;;;;;;5094137;28;20020;-80
2021/06/07 02:20:56;;;;;;;12.77;8.07;;;13.50;99.90;;;;;;5093614;28;20027;-80
2021/06/07 02:23:22;;;;;;;9.15;7.75;;;13.50;99.90;;;;;;5092726;28;20062;-80
2021/06/07 02:25:48;;;;;;;9.35;8.43;;;13.40;99.90;;;;;;5093453;28;20067;-80
2021/06/07 02:28:16;;;;;;;9.20;8.30;;;13.40;99.90;;;;;;5092742;28;20056;-80
2021/06/07 02:30:43;;;;;;;8.82;7.63;;;13.30;99.90;;;;;;5092198;28;20050;-80
2021/06/07 02:33:09;;;;;;;10.02;8.05;;;13.40;99.90;;;;;;5092078;28;20028;-82
2021/06/07 02:35:34;;;;;;;13.80;8.25;;;13.30;99.90;;;;;;5092393;28;20024;-80
2021/06/07 02:38:01;;;;;;;8.88;7.47;;;13.30;99.90;;;;;;5092306;28;20023;-79
2021/06/07 02:40:28;;;;;;;9.85;8.65;;;13.30;99.90;;;;;;5092382;28;20463;-80
2021/06/07 02:42:55;;;;;;;8.70;7.50;;;13.20;99.90;;;;;;5093833;28;20390;-81
2021/06/07 02:45:22;;;;;;;11.02;7.80;;;13.20;99.90;;;;;;5093783;28;20027;-80
2021/06/07 02:47:50;;;;;;;10.43;7.47;;;13.20;99.90;;;;;;5092061;28;20034;-80
2021/06/07 02:50:20;;;;;;;11.25;6.95;;;13.10;99.90;;;;;;5092209;28;20039;-78
2021/06/07 02:52:49;;;;;;;11.18;8.32;;;13.10;99.90;;;;;;5092260;28;20069;-81
2021/06/07 02:55:26;;;;;;;10.15;7.25;;;13.10;99.90;;;;;;5092194;28;20364;-80
2021/06/07 02:57:53;;;;;;;8.88;7.57;;;13.00;99.90;;;;;;5092215;28;20035;-79
2021/06/07 03:00:23;;;;;;;9.68;7.63;;;13.10;99.90;;;;;;5093263;28;20016;-81
2021/06/07 03:02:49;;;;;;;8.13;7.30;;;13.10;99.90;;;;;;5092302;28;20347;-79
2021/06/07 03:05:14;;;;;;;7.88;7.18;;;13.00;99.90;;;;;;5093105;28;20059;-80
2021/06/07 03:07:40;;;;;;;10.80;7.30;;;13.00;99.90;;;;;;5093393;28;20102;-80
2021/06/07 03:10:07;;;;;;;12.15;8.00;;;13.10;99.90;;;;;;5091976;28;20024;-80
2021/06/07 03:12:34;;;;;;;8.57;7.68;;;13.20;99.90;;;;;;5091943;28;20082;-81
2021/06/07 03:15:00;;;;;;;8.27;7.47;;;13.10;99.90;;;;;;5091753;28;20035;-81
2021/06/07 03:17:26;;;;;;;10.02;7.88;;;13.10;99.90;;;;;;5092068;28;20441;-80
2021/06/07 03:19:52;;;;;;;11.38;7.78;;;13.00;99.90;;;;;;5092022;28;20058;-80
2021/06/07 03:22:21;;;;;;;10.40;7.97;;;13.00;99.90;;;;;;5094091;28;20475;-80
2021/06/07 03:24:50;;;;;;;10.50;7.88;;;13.00;99.90;;;;;;5096034;28;20020;-80
2021/06/07 03:27:17;;;;;;;12.77;8.40;;;13.00;99.90;;;;;;5095795;28;20032;-83
2021/06/07 03:29:43;;;;;;;8.10;7.40;;;13.00;99.90;;;;;;5097280;28;20051;-80
2021/06/07 03:32:09;;;;;;;9.40;7.60;;;13.00;99.90;;;;;;5095300;28;20060;-81
2021/06/07 03:34:34;;;;;;;10.38;7.35;;;13.10;99.90;;;;;;5095449;28;20028;-81
2021/06/07 03:37:00;;;;;;;9.98;7.43;;;13.10;99.90;;;;;;5097215;28;20023;-80
2021/06/07 03:39:26;;;;;;;8.68;7.38;;;13.20;99.90;;;;;;5095527;28;20028;-81
2021/06/07 03:41:52;;;;;;;8.30;7.20;;;13.20;99.90;;;;;;5096153;28;20024;-81
2021/06/07 03:44:17;;;;;;;7.53;6.80;;;13.10;99.90;;;;;;5095795;28;20031;-81
2021/06/07 03:46:43;;;;;;;11.40;7.22;;;13.20;99.90;;;;;;5095574;28;20032;-81
2021/06/07 03:49:09;;;;;;;12.90;6.95;;;13.30;99.90;;;;;;5095734;28;20023;-80
2021/06/07 03:51:34;;;;;;;11.07;7.07;;;13.30;99.90;;;;;;5095360;28;20032;-81
2021/06/07 03:54:00;;;;;;;6.80;6.20;;;13.30;99.90;;;;;;5095627;28;20165;-81
2021/06/07 03:56:26;;;;;;;12.68;7.00;;;13.30;99.90;;;;;;5097221;28;20093;-81
2021/06/07 03:58:51;;;;;;;8.10;6.57;;;13.30;99.90;;;;;;5096850;28;20020;-80
2021/06/07 04:01:17;;;;;;;10.68;8.15;;;13.30;99.90;;;;;;5095606;28;20023;-80
2021/06/07 04:03:43;;;;;;;13.88;11.00;;;13.40;99.90;;;;;;5095699;28;20028;-81
2021/06/07 04:06:08;;;;;;;16.13;14.20;;;13.40;99.90;;;;;;5095377;28;20044;-82
2021/06/07 04:08:35;;;;;;;10.23;9.20;;;13.40;99.90;;;;;;5095100;28;20356;-80
2021/06/07 04:11:00;;;;;;;10.07;9.13;;;13.50;99.90;;;;;;5095217;28;20039;-79
2021/06/07 04:13:26;;;;;;;9.73;8.68;;;13.50;99.90;;;;;;5095631;28;20382;-82
2021/06/07 04:15:52;;;;;;;11.07;8.23;;;13.60;99.90;;;;;;5095134;28;20035;-82
2021/06/07 04:18:17;;;;;;;10.35;7.40;;;13.70;99.90;;;;;;5095239;28;20021;-80
2021/06/07 04:20:43;;;;;;;10.07;7.28;;;13.70;99.90;;;;;;5094946;28;20024;-80
2021/06/07 04:23:09;;;;;;;9.27;8.02;;;13.70;99.90;;;;;;5096039;28;20024;-82
2021/06/07 04:25:35;;;;;;;8.27;7.47;;;13.80;99.90;;;;;;5094761;28;20131;-80
2021/06/07 04:28:02;;;;;;;11.45;8.05;;;13.80;99.90;;;;;;5094864;28;20111;-80
2021/06/07 04:30:30;;;;;;;9.20;8.23;;;13.90;99.90;;;;;;5094753;28;20023;-80
2021/06/07 04:32:57;;;;;;;8.60;7.75;;;13.90;99.90;;;;;;5093889;28;20020;-80
2021/06/07 04:35:23;;;;;;;9.35;7.43;;;14.00;99.90;;;;;;5094618;28;20051;-80
2021/06/07 04:37:51;;;;;;;9.70;8.05;;;14.00;99.90;;;;;;5094950;28;20034;-81
2021/06/07 04:40:32;;;;;;;7.88;7.18;;;14.10;99.90;;;;;;5094777;28;20429;-81
2021/06/07 04:43:00;;;;;;;10.15;7.78;;;14.20;99.90;;;;;;5094711;28;20024;-81
2021/06/07 04:45:26;;;;;;;8.80;7.90;;;14.30;99.90;;;;;;5094636;28;20024;-80
2021/06/07 04:47:52;;;;;;;12.18;8.23;;;14.40;99.90;;;;;;5094841;28;20116;-81
2021/06/07 04:50:19;;;;;;;10.73;7.07;;;14.40;99.90;;;;;;5095810;28;20032;-82
2021/06/07 04:53:01;;;;;;;8.90;7.35;;;14.50;99.90;;;;;;5094404;28;20016;-81
2021/06/07 04:55:43;;;;;;;8.20;7.45;;;14.60;99.90;;;;;;5093979;28;20020;-80
2021/06/07 04:58:11;;;;;;;10.38;6.43;;;14.80;99.90;;;;;;5094549;28;20459;-82
2021/06/07 05:00:38;;;;;;;7.82;5.15;;;15.80;99.90;;;;;;5097543;28;20106;-81
2021/06/07 05:03:04;;;;;;;6.65;5.60;;;17.00;99.90;;;;;;5095295;28;20490;-84
2021/06/07 05:05:30;;;;;;;15.18;5.85;;;17.40;99.90;;;;;;5095105;28;20044;-84
2021/06/07 05:07:57;;;;;;;5.93;5.32;;;17.10;99.90;;;;;;5099429;28;20030;-83
2021/06/07 05:10:23;;;;;;;5.75;5.13;;;17.60;99.90;;;;;;5095260;28;20506;-84
2021/06/07 05:12:48;;;;;;;6.78;5.38;;;17.50;99.90;;;;;;5097473;28;20526;-80
2021/06/07 05:15:15;;;;;;;7.05;5.78;;;18.00;99.90;;;;;;5094040;28;20120;-82
2021/06/07 05:17:41;;;;;;;6.93;5.72;;;18.10;99.90;;;;;;5093929;28;20081;-80
2021/06/07 05:20:10;;;;;;;6.88;5.65;;;17.90;99.90;;;;;;5094361;28;20052;-82
2021/06/07 05:22:36;;;;;;;5.68;5.07;;;17.80;99.90;;;;;;5094397;28;20020;-80
2021/06/07 05:25:04;;;;;;;6.00;5.00;;;17.60;99.90;;;;;;5094056;28;20077;-80
2021/06/07 05:27:29;;;;;;;6.38;5.22;;;17.60;99.90;;;;;;5094107;28;20052;-81
2021/06/07 05:29:55;;;;;;;10.50;5.55;;;17.50;99.90;;;;;;5094017;28;20067;-80
2021/06/07 05:32:21;;;;;;;5.20;4.68;;;17.40;99.90;;;;;;5094130;28;20022;-81
2021/06/07 05:34:47;;;;;;;8.07;4.97;;;17.60;99.90;;;;;;5094053;28;20028;-82
2021/06/07 05:37:12;;;;;;;8.27;5.68;;;18.00;99.90;;;;;;5095278;28;20027;-80
2021/06/07 05:39:38;;;;;;;5.03;4.32;;;18.20;99.90;;;;;;5093830;28;20024;-80
2021/06/07 05:42:04;;;;;;;5.32;4.78;;;18.30;99.90;;;;;;5095020;28;20024;-81
2021/06/07 05:44:30;;;;;;;9.45;5.05;;;18.40;99.90;;;;;;5092784;28;20185;-80
2021/06/07 05:46:55;;;;;;;8.93;4.80;;;18.60;99.90;;;;;;5093209;28;20119;-81
2021/06/07 05:49:21;;;;;;;6.57;4.88;;;18.70;99.90;;;;;;5093658;28;20110;-81
2021/06/07 05:51:47;;;;;;;5.53;5.03;;;18.70;99.90;;;;;;5093453;28;20386;-81
2021/06/07 05:54:13;;;;;;;9.68;5.32;;;19.00;99.90;;;;;;5094779;28;20020;-80
2021/06/07 05:56:39;;;;;;;6.65;4.63;;;19.00;99.90;;;;;;5093394;28;20432;-80
2021/06/07 05:59:08;;;;;;;8.40;5.07;;;19.20;99.90;;;;;;5093408;28;20024;-79
2021/06/07 06:01:36;;;;;;;7.53;4.97;;;19.30;99.90;;;;;;5093513;28;20031;-81
2021/06/07 06:04:03;;;;;;;7.63;5.80;;;19.50;99.90;;;;;;5093020;28;20058;-80
2021/06/07 06:06:31;;;;;;;5.68;5.05;;;19.60;99.90;;;;;;5093264;28;20383;-80
2021/06/07 06:08:57;;;;;;;7.07;4.78;;;19.70;99.90;;;;;;5092268;28;20433;-79
2021/06/07 06:11:22;;;;;;;10.68;8.07;;;19.80;99.90;;;;;;5092843;28;20029;-80
2021/06/07 06:13:49;;;;;;;6.57;5.95;;;19.90;99.90;;;;;;5093080;28;20012;-78
2021/06/07 06:16:15;;;;;;;6.07;5.47;;;20.10;99.90;;;;;;5093220;28;20024;-81
2021/06/07 06:18:41;;;;;;;6.32;5.03;;;20.10;99.90;;;;;;5093927;28;20024;-81
2021/06/07 06:21:07;;;;;;;6.00;5.38;;;20.10;99.90;;;;;;5094708;28;20036;-80
2021/06/07 06:23:33;;;;;;;7.88;5.63;;;20.10;99.90;;;;;;5094843;28;20020;-82
2021/06/07 06:26:01;;;;;;;6.07;4.63;;;20.00;99.90;;;;;;5093218;28;20043;-83
2021/06/07 06:28:27;;;;;;;5.68;5.18;;;20.10;99.90;;;;;;5093476;28;20024;-82
2021/06/07 06:30:53;;;;;;;6.32;5.20;;;20.20;99.90;;;;;;5093385;28;20028;-81
2021/06/07 06:33:19;;;;;;;5.57;4.65;;;20.40;99.90;;;;;;5093686;28;20082;-81
2021/06/07 06:35:44;;;;;;;4.70;4.30;;;20.50;99.90;;;;;;5093645;28;20027;-82
2021/06/07 06:38:10;;;;;;;5.43;4.65;;;20.60;99.90;;;;;;5093485;28;20031;-82
2021/06/07 06:40:38;;;;;;;5.75;4.45;;;20.60;99.90;;;;;;5093237;28;20379;-81
2021/06/07 06:43:04;;;;;;;4.88;4.38;;;20.80;99.90;;;;;;5093482;28;20478;-82
2021/06/07 06:45:32;;;;;;;7.32;5.15;;;20.90;99.90;;;;;;5093784;28;20032;-82
2021/06/07 06:47:59;;;;;;;5.90;4.50;;;21.00;99.90;;;;;;5093183;28;20016;-81
2021/06/07 06:50:26;;;;;;;11.10;4.35;;;21.00;99.90;;;;;;5093280;28;20105;-81
2021/06/07 06:52:52;;;;;;;6.10;4.50;;;21.20;99.90;;;;;;5093242;28;20012;-82
2021/06/07 06:55:18;;;;;;;5.05;4.55;;;21.40;99.90;;;;;;5092316;28;20030;-84
2021/06/07 06:57:44;;;;;;;6.13;4.38;;;21.60;99.60;;;;;;5092399;28;20540;-81
2021/06/07 07:00:11;;;;;;;6.57;4.65;;;21.70;99.60;;;;;;5092293;28;20082;-79
2021/06/07 07:02:37;;;;;;;7.97;4.55;;;21.80;99.60;;;;;;5092139;28;20020;-80
2021/06/07 07:05:05;;;;;;;6.40;5.05;;;22.00;99.70;;;;;;5092663;28;20055;-80
2021/06/07 07:07:31;;;;;;;6.28;4.68;;;22.10;98.40;;;;;;5076651;28;20044;-80
2021/06/07 07:09:56;;;;;;;5.45;4.60;;;22.20;98.50;;;;;;5092395;28;20482;-76
2021/06/07 07:12:25;;;;;;;7.15;4.50;;;22.30;98.70;;;;;;5092309;28;20139;-78
2021/06/07 07:14:53;;;;;;;5.18;4.68;;;22.30;98.50;;;;;;5093372;28;20028;-82
2021/06/07 07:17:19;;;;;;;7.72;4.75;;;22.40;98.00;;;;;;5092550;28;20452;-84
2021/06/07 07:19:46;;;;;;;9.52;4.30;;;22.50;97.60;;;;;;5092260;28;20043;-80
2021/06/07 07:22:12;;;;;;;7.20;4.85;;;22.50;97.80;;;;;;5092859;28;20425;-83
2021/06/07 07:24:43;;;;;;;4.85;4.20;;;22.50;97.90;;;;;;5092962;28;20028;-84
2021/06/07 07:27:11;;;;;;;6.93;4.43;;;22.60;98.00;;;;;;5094057;28;20035;-83
2021/06/07 07:29:39;;;;;;;6.72;4.00;;;22.70;97.20;;;;;;5093087;28;20114;-84
2021/06/07 07:32:06;;;;;;;4.43;4.03;;;22.80;97.40;;;;;;5092712;28;20060;-83
2021/06/07 07:34:32;;;;;;;5.85;3.75;;;23.10;96.70;;;;;;5092831;28;20366;-82
2021/06/07 07:36:59;;;;;;;4.40;3.88;;;23.00;96.40;;;;;;5093970;28;20052;-82
2021/06/07 07:39:25;;;;;;;4.85;4.30;;;23.10;96.30;;;;;;5094515;28;20417;-80
2021/06/07 07:41:51;;;;;;;5.55;3.83;;;23.20;96.80;;;;;;5094570;28;20022;-84
2021/06/07 07:44:17;;;;;;;3.70;3.30;;;23.40;96.50;;;;;;5094721;28;20467;-84
2021/06/07 07:46:43;;;;;;;3.88;3.47;;;23.60;96.90;;;;;;5094692;28;20031;-82
2021/06/07 07:49:08;;;;;;;5.10;3.63;;;23.60;95.30;;;;;;5095093;28;20028;-83
2021/06/07 07:51:34;;;;;;;5.55;3.25;;;23.90;95.20;;;;;;5093020;28;20032;-82
2021/06/07 07:54:00;;;;;;;4.20;3.70;;;24.10;95.20;;;;;;5093151;28;20028;-80
2021/06/07 07:56:25;;;;;;;4.68;3.28;;;24.40;94.00;;;;;;5094305;28;20077;-83
2021/06/07 07:58:51;;;;;;;6.55;3.40;;;24.50;94.10;;;;;;5093116;28;20028;-82
2021/06/07 08:01:17;;;;;;;10.18;3.72;;;24.70;93.50;;;;;;5092809;28;20023;-82
2021/06/07 08:03:42;;;;;;;5.47;3.50;;;24.80;94.00;;;;;;5094149;28;20115;-82
2021/06/07 08:06:08;;;;;;;6.35;3.53;;;24.80;92.20;;;;;;5093830;28;20525;-82
2021/06/07 08:08:36;;;;;;;3.90;3.22;;;24.90;92.30;;;;;;5094054;28;20122;-81
2021/06/07 08:11:02;;;;;;;5.72;3.42;;;25.00;90.90;;;;;;5097817;28;20064;-81
2021/06/07 08:13:27;;;;;;;6.40;4.10;;;24.60;92.60;;;;;;5096944;28;20031;-81
2021/06/07 08:15:54;;;;;;;6.82;4.15;;;24.70;94.70;;;;;;5096770;28;20107;-82
2021/06/07 08:18:19;;;;;;;4.15;3.67;;;24.70;94.70;;;;;;5097541;28;20031;-81
2021/06/07 08:20:45;;;;;;;8.05;3.72;;;24.90;93.60;;;;;;5096492;28;20382;-81
2021/06/07 08:23:11;;;;;;;4.05;3.65;;;25.10;93.60;;;;;;5095309;28;20501;-81
2021/06/07 08:25:37;;;;;;;22.85;4.55;;;25.30;91.60;;;;;;5096945;28;20032;-82
2021/06/07 08:28:05;;;;;;;4.90;3.55;;;25.10;92.40;;;;;;5096742;28;20021;-81
2021/06/07 08:30:32;;;;;;;4.20;2.92;;;25.30;92.80;;;;;;5079012;28;20068;-80
2021/06/07 08:32:58;;;;;;;3.55;3.25;;;25.20;92.20;;;;;;5097010;28;20348;-80
2021/06/07 08:35:24;;;;;;;4.30;3.88;;;25.40;92.20;;;;;;5096415;28;20027;-83
2021/06/07 08:37:50;;;;;;;4.95;3.80;;;25.40;92.30;;;;;;5095338;28;20028;-83
2021/06/07 08:40:16;;;;;;;4.13;3.25;;;25.50;94.10;;;;;;5095172;28;20020;-83
2021/06/07 08:42:43;;;;;;;3.50;3.20;;;25.50;91.70;;;;;;5095270;28;20028;-81
2021/06/07 08:45:12;;;;;;;3.70;3.33;;;25.30;91.00;;;;;;5094406;28;20024;-83
2021/06/07 08:47:42;;;;;;;4.15;3.20;;;25.10;91.90;;;;;;5095024;28;20043;-82
2021/06/07 08:50:10;;;;;;;6.57;3.90;;;25.10;91.70;;;;;;5093352;28;20368;-83
2021/06/07 08:52:36;;;;;;;4.30;3.50;;;25.20;92.60;;;;;;5095385;28;20056;-82
2021/06/07 08:55:05;;;;;;;4.38;3.40;;;25.50;92.70;;;;;;5096226;28;20020;-84
2021/06/07 08:57:40;;;;;;;4.82;3.75;;;25.30;91.10;;;;;;5095187;28;20024;-84
2021/06/07 09:00:07;;;;;;;4.65;3.78;;;25.00;91.20;;;;;;5094740;28;20024;-82
2021/06/07 09:02:38;;;;;;;4.65;3.60;;;24.90;92.50;;;;;;5093838;28;20458;-83
2021/06/07 09:05:05;;;;;;;8.90;4.03;;;24.80;92.70;;;;;;5094853;28;20048;-83
2021/06/07 09:07:30;;;;;;;5.50;3.40;;;24.70;92.70;;;;;;5095678;28;20483;-82
2021/06/07 09:10:12;;;;;;;7.55;3.17;;;24.50;92.40;;;;;;5094890;28;20107;-83
2021/06/07 09:12:42;;;;;;;4.10;3.38;;;24.50;92.50;;;;;;5094741;28;20035;-84
2021/06/07 09:15:13;;;;;;;3.72;3.28;;;24.60;92.50;;;;;;5094829;28;20431;-84
2021/06/07 09:17:45;;;;;;;6.07;3.53;;;24.80;92.90;;;;;;5093776;28;20024;-82
2021/06/07 09:20:18;;;;;;;4.55;3.28;;;25.00;92.00;;;;;;5099680;28;20020;-88
2021/06/07 09:22:56;;;;;;;4.10;3.38;;;25.00;91.10;;;;;;5101497;28;20020;-88
2021/06/07 09:25:34;;;;;;;4.60;3.40;;;24.90;91.50;;;;;;5099689;28;20123;-85
2021/06/07 09:28:22;;;;;;;5.22;3.80;;;25.10;91.10;;;;;;5099626;28;20024;-84
2021/06/07 09:30:58;;;;;;;4.90;3.45;;;25.30;91.70;;;;;;5102764;28;20092;-85
2021/06/07 09:33:26;;;;;;;4.32;3.20;;;25.70;92.20;;;;;;5105155;28;20073;-81
2021/06/07 09:36:09;;;;;;;5.97;3.22;;;26.00;91.10;;;;;;5094371;28;20352;-87
2021/06/07 09:39:03;;;;;;;4.13;3.08;;;26.20;90.20;;;;;;5095180;28;20100;-80
2021/06/07 09:41:32;;;;;;;4.78;3.60;;;26.40;90.10;;;;;;5094067;28;20020;-86
2021/06/07 09:44:00;;;;;;;3.45;3.15;;;26.80;90.20;;;;;;5095592;28;20032;-84
2021/06/07 09:46:29;;;;;;;6.22;3.30;;;27.10;89.80;;;;;;5095525;28;20024;-86
2021/06/07 09:49:14;;;;;;;7.32;3.50;;;27.20;88.30;;;;;;5094352;28;20052;-85
2021/06/07 09:51:52;;;;;;;3.35;2.97;;;27.20;88.10;;;;;;5094185;28;20059;-84
2021/06/07 09:54:18;;;;;;;4.03;3.05;;;27.20;84.40;;;;;;5093916;28;20026;-84
2021/06/07 09:56:54;;;;;;;3.33;2.80;;;27.20;87.40;;;;;;5094038;28;20111;-82
2021/06/07 09:59:29;;;;;;;3.78;2.70;;;27.20;86.30;;;;;;5094303;28;20145;-83
2021/06/07 10:01:57;;;;;;;3.33;2.75;;;27.30;86.70;;;;;;5093760;28;20057;-86
2021/06/07 10:04:43;;;;;;;7.68;3.05;;;27.50;84.50;;;;;;5094522;28;20030;-84
2021/06/07 10:07:08;;;;;;;5.60;3.50;;;27.70;83.70;;;;;;5094014;28;20032;-84
2021/06/07 10:09:34;;;;;;;8.40;2.55;;;27.20;82.80;;;;;;5095203;28;20108;-88
2021/06/07 10:12:00;;;;;;;4.85;2.60;;;27.40;83.10;;;;;;5093695;28;20024;-86
2021/06/07 10:14:25;;;;;;;3.35;2.78;;;27.60;83.80;;;;;;5095164;28;20363;-80
2021/06/07 10:17:03;;;;;;;5.35;2.72;;;27.70;80.00;;;;;;5094335;28;20028;-84
2021/06/07 10:19:39;;;;;;;4.00;3.00;;;27.40;80.60;;;;;;5093913;28;20035;-86
2021/06/07 10:22:05;;;;;;;5.63;3.10;;;27.50;82.70;;;;;;5095083;28;20023;-83
2021/06/07 10:24:32;;;;;;;4.45;2.58;;;27.50;81.10;;;;;;5093800;28;20032;-87
2021/06/07 10:26:58;;;;;;;3.72;2.95;;;27.50;81.70;;;;;;5094036;28;20448;-82
2021/06/07 10:29:46;;;;;;;3.85;3.13;;;27.90;81.20;;;;;;5093590;28;20016;-87
2021/06/07 10:32:18;;;;;;;3.05;2.72;;;27.90;79.20;;;;;;5093801;28;20538;-86
2021/06/07 10:34:53;;;;;;;2.80;2.50;;;28.00;78.90;;;;;;5094326;28;20012;-83
2021/06/07 10:37:19;;;;;;;3.47;2.70;;;28.30;81.40;;;;;;5093190;28;20102;-84
2021/06/07 10:39:46;;;;;;;4.20;2.80;;;28.30;76.50;;;;;;5093697;28;20032;-86
2021/06/07 10:42:24;;;;;;;5.63;2.92;;;27.90;73.00;;;;;;5095226;28;20379;-86
2021/06/07 10:44:52;;;;;;;5.00;3.30;;;27.80;78.30;;;;;;5095660;28;20103;-84
2021/06/07 10:47:30;;;;;;;5.53;2.88;;;27.80;79.20;;;;;;5094762;28;20032;-86
2021/06/07 10:50:03;;;;;;;3.67;2.75;;;27.90;79.80;;;;;;5092965;28;20020;-79
2021/06/07 10:52:39;;;;;;;4.70;2.58;;;28.00;79.00;;;;;;5093740;28;20115;-79
2021/06/07 10:55:08;;;;;;;2.72;2.53;;;27.60;78.70;;;;;;5091717;28;20020;-78
2021/06/07 10:57:47;;;;;;;2.88;2.42;;;27.30;76.90;;;;;;5091716;28;20028;-83
2021/06/07 11:00:32;;;;;;;4.90;2.50;;;27.00;75.60;;;;;;5092507;28;20024;-87
2021/06/07 11:03:03;;;;;;;;;;;26.90;76.20;;;;;;5092028;28;20024;-77
2021/06/07 11:05:32;;;;;;;3.85;2.65;;;26.90;77.30;;;;;;5091459;28;19916;-77
2021/06/07 11:08:05;;;;;;;3.10;2.80;;;26.90;77.30;;;;;;5092628;28;20435;-79
2021/06/07 11:10:42;;;;;;;4.63;2.72;;;27.00;75.40;;;;;;5092820;28;20041;-78
2021/06/07 11:13:14;;;;;;;4.00;3.05;;;26.80;75.80;;;;;;5092417;28;20036;-78
2021/06/07 11:15:52;;;;;;;3.72;2.90;;;26.50;79.60;;;;;;5092250;28;20062;-77
2021/06/07 11:18:27;;;;;;;6.40;3.40;;;26.30;82.10;;;;;;5093296;28;20051;-78
2021/06/07 11:21:13;;;;;;;5.95;3.10;;;25.80;82.50;;;;;;5091644;28;20406;-78
2021/06/07 11:23:42;;;;;;;;;;;25.30;86.10;;;;;;5090760;28;20032;-75
2021/06/07 11:26:13;;;;;;;4.50;2.60;;;24.80;89.00;;;;;;5092960;28;20007;-78
2021/06/07 11:28:51;;;;;;;4.95;2.15;;;24.40;83.80;;;;;;5092079;28;20024;-75
2021/06/07 11:31:19;;;;;;;3.25;2.20;;;24.00;81.90;;;;;;5092777;28;20099;-78
2021/06/07 11:33:59;;;;;;;7.13;2.97;;;23.20;85.50;;;;;;5093177;28;20043;-79
2021/06/07 11:36:50;;;;;;;6.28;2.78;;;22.70;89.40;;;;;;5091158;28;20022;-78
2021/06/07 11:39:18;;;;;;;2.95;2.30;;;22.20;92.90;;;;;;5092556;28;20031;-78
2021/06/07 11:41:46;;;;;;;5.47;2.60;;;21.80;91.80;;;;;;5090920;28;20020;-79
2021/06/07 11:44:13;;;;;;;6.72;2.40;;;21.40;92.80;;;;;;5096408;28;20052;-79
2021/06/07 11:46:39;;;;;;;16.13;3.45;;;21.00;94.10;;;;;;5096534;28;20565;-80
2021/06/07 11:49:13;;;;;;;14.52;4.25;;;20.50;98.00;;;;;;5096581;28;20058;-83
2021/06/07 11:51:43;;;;;;;6.85;3.20;;;20.00;99.90;;;;;;5096507;28;20028;-83
2021/06/07 11:54:27;;;;;;;10.85;3.25;;;19.50;99.90;;;;;;5097882;28;20028;-84
2021/06/07 11:57:01;;;;;;;9.70;3.13;;;19.20;99.90;;;;;;5096096;28;20128;-86
2021/06/07 11:59:29;;;;;;;14.65;4.75;;;19.00;99.90;;;;;;5096296;28;20043;-85
2021/06/07 12:01:55;;;;;;;20.08;5.03;;;18.90;99.90;;;;;;5096859;28;20024;-84
2021/06/07 12:04:32;;;;;;;12.00;4.40;;;18.90;99.90;;;;;;5097753;28;20103;-85
2021/06/07 12:07:00;;;;;;;8.68;4.68;;;18.70;99.90;;;;;;5097490;28;20382;-84
2021/06/07 12:09:26;;;;;;;9.77;4.57;;;18.60;99.90;;;;;;5096738;28;20144;-83
2021/06/07 12:11:52;;;;;;;8.25;4.88;;;18.40;99.90;;;;;;5095217;28;20050;-85
2021/06/07 12:14:28;;;;;;;8.35;4.65;;;18.40;99.90;;;;;;5096522;28;20069;-85
2021/06/07 12:17:01;;;;;;;7.88;4.03;;;18.50;99.90;;;;;;5096333;28;20020;-84
2021/06/07 12:19:34;;;;;;;9.32;4.20;;;18.50;99.90;;;;;;5096333;28;20016;-87
2021/06/07 12:22:00;;;;;;;8.02;4.78;;;18.40;99.90;;;;;;5096049;28;20024;-82
2021/06/07 12:24:27;;;;;;;9.43;5.68;;;18.30;99.90;;;;;;5096120;28;20027;-83
2021/06/07 12:29:39;;;;;;;7.63;4.55;;;19.00;99.90;;;;;;5097410;28;20023;-83
2021/06/07 12:32:21;;;;;;;9.15;4.50;;;18.70;99.90;;;;;;5096017;28;20123;-85
2021/06/07 12:35:10;;;;;;;7.78;4.50;;;18.60;99.90;;;;;;5097354;28;20459;-83
2021/06/07 12:37:48;;;;;;;7.30;4.57;;;18.50;99.90;;;;;;5097043;28;20020;-82
2021/06/07 12:40:27;;;;;;;11.15;4.60;;;18.50;99.90;;;;;;5095605;28;20539;-84
2021/06/07 12:42:55;;;;;;;5.63;4.30;;;18.50;99.90;;;;;;5096767;28;20035;-84
2021/06/07 12:45:24;;;;;;;6.00;4.07;;;18.50;99.90;;;;;;5095444;28;20360;-83
2021/06/07 12:47:51;;;;;;;9.38;4.63;;;18.30;99.90;;;;;;5095304;28;20020;-83
2021/06/07 12:50:22;;;;;;;7.57;4.82;;;18.10;99.90;;;;;;5095393;28;20051;-82
2021/06/07 12:52:54;;;;;;;8.98;4.10;;;18.20;99.90;;;;;;5095176;28;20020;-84
2021/06/07 12:55:23;;;;;;;6.43;3.80;;;18.60;99.90;;;;;;5094520;28;20020;-83